Long Island Mac Arthur Airport
KISP : now visible

Airfield :











YOU CAN JOIN US ON...

 
LOGIN :

Register | Disclaimer

   EN    FR    IT 

 









Legend :    VFR   Marginal VFR   IFR   Intensive IFR   Very Intensive IFR
Visi :
Ceiling :
>= 8 km
>= 3000ft
5 to 8 km
1000 to 3000 ft
1500m to 5 km
500 to 1000 ft
800 to 1500m
200 to 500 ft
< 800m
< 200 ft
Symbols :   Thunderstorms  Fog  Heavy snow  Heavy precipitations  Wind > 20 kt






- Airport Elevation : 99 ft
- IATA code : ISP


KISP - Long Island Mac Arthur

CURRENT METAR :
  • 042256Z 18007KT 10SM FEW035 FEW050 23/18 A2992 RMK AO2 SLP131 T02330183

EXPIRED METARs :
  • 042156Z 17008KT 10SM FEW035 FEW050 24/19 A2991 RMK AO2 SLP129 T02390189
  • 042056Z 16009KT 10SM FEW035 SCT050 25/19 A2991 RMK AO2 SLP129 T02500189 55001

TAF KISP
Valid from the 04 at 18:00 until the 05 at 18:00 UTC


041747Z 0418/0518 02005KT P6SM SCT035
FM041900 16008KT P6SM SCT050
FM050100 VRB03KT P6SM FEW060 SCT250
FM050500 VRB03KT P6SM SCT015
FM050800 VRB03KT 5SM BR SCT009
FM051500 22006KT P6SM FEW250
KZBW FIR / North America



MET'MAP, your aeronautical weather chart ! - Copyright ORBIFLY December 2007 - Disclaimer

ORBIFLY MET'MAP TEAM :

Programming & Development : Alexandra Zaïnal
Concept & original design : Baudouin d'Aumeries
Assistance for programming : Marc-Olivier Méhu
Technical & hardware support : Manuel Goepfert

Contact : metmap@orbifly.com




SOURCES & CREDITS :

   NOAA       Earth
Advisory